sensor_id;sensor_type;location;lat;lon;timestamp;pressure;altitude;pressure_sealevel;temperature;humidity
62946;BME280;52164;52.212;-1.010;2022-08-20T00:00:14;100772.67;;;15.22;60.43
62946;BME280;52164;52.212;-1.010;2022-08-20T00:02:41;100766.98;;;15.18;60.81
62946;BME280;52164;52.212;-1.010;2022-08-20T00:05:07;100764.67;;;15.16;60.89
62946;BME280;52164;52.212;-1.010;2022-08-20T00:07:32;100761.46;;;15.15;61.05
62946;BME280;52164;52.212;-1.010;2022-08-20T00:09:57;100760.77;;;15.11;60.84
62946;BME280;52164;52.212;-1.010;2022-08-20T00:12:23;100762.42;;;15.10;61.52
62946;BME280;52164;52.212;-1.010;2022-08-20T00:14:48;100763.00;;;15.07;61.49
62946;BME280;52164;52.212;-1.010;2022-08-20T00:17:14;100764.99;;;15.06;61.77
62946;BME280;52164;52.212;-1.010;2022-08-20T00:19:39;100764.13;;;15.04;61.88
62946;BME280;52164;52.212;-1.010;2022-08-20T00:22:04;100760.91;;;15.02;61.82
62946;BME280;52164;52.212;-1.010;2022-08-20T00:24:30;100766.16;;;15.01;62.38
62946;BME280;52164;52.212;-1.010;2022-08-20T00:26:55;100762.94;;;15.00;62.43
62946;BME280;52164;52.212;-1.010;2022-08-20T00:29:20;100761.51;;;14.99;62.69
62946;BME280;52164;52.212;-1.010;2022-08-20T00:31:46;100759.53;;;14.97;62.70
62946;BME280;52164;52.212;-1.010;2022-08-20T00:34:11;100757.40;;;14.96;62.62
62946;BME280;52164;52.212;-1.010;2022-08-20T00:36:37;100763.52;;;14.94;62.73
62946;BME280;52164;52.212;-1.010;2022-08-20T00:39:02;100761.23;;;14.93;63.10
62946;BME280;52164;52.212;-1.010;2022-08-20T00:41:27;100760.54;;;14.92;63.22
62946;BME280;52164;52.212;-1.010;2022-08-20T00:44:05;100757.30;;;14.91;63.35
62946;BME280;52164;52.212;-1.010;2022-08-20T00:46:31;100753.73;;;14.90;63.23
62946;BME280;52164;52.212;-1.010;2022-08-20T00:48:56;100755.90;;;14.89;63.39
62946;BME280;52164;52.212;-1.010;2022-08-20T00:51:28;100754.30;;;14.87;63.27
62946;BME280;52164;52.212;-1.010;2022-08-20T00:53:55;100749.83;;;14.85;63.48
62946;BME280;52164;52.212;-1.010;2022-08-20T00:56:22;100752.91;;;14.84;63.79
62946;BME280;52164;52.212;-1.010;2022-08-20T00:58:47;100752.02;;;14.82;63.72
62946;BME280;52164;52.212;-1.010;2022-08-20T01:01:15;100750.27;;;14.80;63.76
62946;BME280;52164;52.212;-1.010;2022-08-20T01:03:40;100749.04;;;14.78;64.06
62946;BME280;52164;52.212;-1.010;2022-08-20T01:06:06;100750.14;;;14.76;64.01
62946;BME280;52164;52.212;-1.010;2022-08-20T01:08:36;100748.76;;;14.73;64.12
62946;BME280;52164;52.212;-1.010;2022-08-20T01:11:02;100743.96;;;14.69;64.25
62946;BME280;52164;52.212;-1.010;2022-08-20T01:13:34;100748.33;;;14.65;64.29
62946;BME280;52164;52.212;-1.010;2022-08-20T01:16:02;100748.90;;;14.61;64.21
62946;BME280;52164;52.212;-1.010;2022-08-20T01:18:28;100746.94;;;14.57;64.47
62946;BME280;52164;52.212;-1.010;2022-08-20T01:20:56;100745.91;;;14.53;64.66
62946;BME280;52164;52.212;-1.010;2022-08-20T01:23:26;100747.23;;;14.49;64.62
62946;BME280;52164;52.212;-1.010;2022-08-20T01:28:23;100746.41;;;14.42;65.00
62946;BME280;52164;52.212;-1.010;2022-08-20T01:30:49;100753.80;;;14.39;65.18
62946;BME280;52164;52.212;-1.010;2022-08-20T01:33:17;100751.14;;;14.37;65.43
62946;BME280;52164;52.212;-1.010;2022-08-20T01:35:42;100752.05;;;14.35;65.61
62946;BME280;52164;52.212;-1.010;2022-08-20T01:38:08;100752.80;;;14.34;65.57
62946;BME280;52164;52.212;-1.010;2022-08-20T01:40:38;100752.45;;;14.32;65.69
62946;BME280;52164;52.212;-1.010;2022-08-20T01:43:08;100753.71;;;14.32;65.70
62946;BME280;52164;52.212;-1.010;2022-08-20T01:45:34;100747.08;;;14.32;65.93
62946;BME280;52164;52.212;-1.010;2022-08-20T01:48:00;100743.29;;;14.33;65.70
62946;BME280;52164;52.212;-1.010;2022-08-20T01:50:26;100742.02;;;14.34;65.82
62946;BME280;52164;52.212;-1.010;2022-08-20T01:52:56;100741.46;;;14.35;65.80
62946;BME280;52164;52.212;-1.010;2022-08-20T01:55:23;100738.05;;;14.36;65.93
62946;BME280;52164;52.212;-1.010;2022-08-20T01:57:50;100737.34;;;14.34;66.01
62946;BME280;52164;52.212;-1.010;2022-08-20T02:00:16;100735.72;;;14.35;66.15
62946;BME280;52164;52.212;-1.010;2022-08-20T02:02:43;100736.98;;;14.35;66.12
62946;BME280;52164;52.212;-1.010;2022-08-20T02:05:08;100741.29;;;14.35;66.09
62946;BME280;52164;52.212;-1.010;2022-08-20T02:07:35;100740.39;;;14.36;66.21
62946;BME280;52164;52.212;-1.010;2022-08-20T02:10:03;100739.31;;;14.34;66.12
62946;BME280;52164;52.212;-1.010;2022-08-20T02:12:29;100739.52;;;14.33;66.18
62946;BME280;52164;52.212;-1.010;2022-08-20T02:14:54;100739.73;;;14.31;66.39
62946;BME280;52164;52.212;-1.010;2022-08-20T02:17:21;100742.98;;;14.29;66.30
62946;BME280;52164;52.212;-1.010;2022-08-20T02:19:48;100739.40;;;14.26;66.37
62946;BME280;52164;52.212;-1.010;2022-08-20T02:22:17;100742.66;;;14.24;66.68
62946;BME280;52164;52.212;-1.010;2022-08-20T02:24:44;100739.63;;;14.23;66.79
62946;BME280;52164;52.212;-1.010;2022-08-20T02:27:10;100733.93;;;14.20;66.90
62946;BME280;52164;52.212;-1.010;2022-08-20T02:29:35;100740.98;;;14.16;66.71
62946;BME280;52164;52.212;-1.010;2022-08-20T02:32:01;100738.87;;;14.11;66.88
62946;BME280;52164;52.212;-1.010;2022-08-20T02:34:26;100735.84;;;14.08;66.71
62946;BME280;52164;52.212;-1.010;2022-08-20T02:36:52;100733.20;;;14.05;66.83
62946;BME280;52164;52.212;-1.010;2022-08-20T02:39:18;100732.18;;;13.99;66.88
62946;BME280;52164;52.212;-1.010;2022-08-20T02:41:43;100729.61;;;13.89;67.00
62946;BME280;52164;52.212;-1.010;2022-08-20T02:44:09;100731.83;;;13.80;67.15
62946;BME280;52164;52.212;-1.010;2022-08-20T02:46:35;100732.63;;;13.71;67.46
62946;BME280;52164;52.212;-1.010;2022-08-20T02:49:00;100731.08;;;13.65;67.69
62946;BME280;52164;52.212;-1.010;2022-08-20T02:51:26;100727.89;;;13.59;67.74
62946;BME280;52164;52.212;-1.010;2022-08-20T02:53:51;100725.10;;;13.51;67.87
62946;BME280;52164;52.212;-1.010;2022-08-20T02:56:17;100727.85;;;13.45;67.90
62946;BME280;52164;52.212;-1.010;2022-08-20T02:58:42;100722.67;;;13.41;68.39
62946;BME280;52164;52.212;-1.010;2022-08-20T03:01:09;100725.55;;;13.38;68.61
62946;BME280;52164;52.212;-1.010;2022-08-20T03:03:36;100727.91;;;13.37;68.73
62946;BME280;52164;52.212;-1.010;2022-08-20T03:06:03;100722.56;;;13.34;68.89
62946;BME280;52164;52.212;-1.010;2022-08-20T03:08:28;100723.63;;;13.30;68.96
62946;BME280;52164;52.212;-1.010;2022-08-20T03:10:54;100721.52;;;13.26;69.24
62946;BME280;52164;52.212;-1.010;2022-08-20T03:13:20;100724.73;;;13.26;69.30
62946;BME280;52164;52.212;-1.010;2022-08-20T03:15:50;100724.93;;;13.24;69.10
62946;BME280;52164;52.212;-1.010;2022-08-20T03:18:16;100720.80;;;13.25;69.43
62946;BME280;52164;52.212;-1.010;2022-08-20T03:20:42;100725.81;;;13.26;69.40
62946;BME280;52164;52.212;-1.010;2022-08-20T03:23:07;100722.21;;;13.28;69.46
62946;BME280;52164;52.212;-1.010;2022-08-20T03:25:33;100722.19;;;13.30;69.65
62946;BME280;52164;52.212;-1.010;2022-08-20T03:27:58;100722.37;;;13.33;69.50
62946;BME280;52164;52.212;-1.010;2022-08-20T03:30:28;100718.04;;;13.37;69.64
62946;BME280;52164;52.212;-1.010;2022-08-20T03:32:54;100717.45;;;13.43;69.79
62946;BME280;52164;52.212;-1.010;2022-08-20T03:35:21;100714.74;;;13.45;69.81
62946;BME280;52164;52.212;-1.010;2022-08-20T03:37:47;100716.88;;;13.49;69.77
62946;BME280;52164;52.212;-1.010;2022-08-20T03:40:15;100715.22;;;13.53;69.75
62946;BME280;52164;52.212;-1.010;2022-08-20T03:42:41;100714.66;;;13.55;69.42
62946;BME280;52164;52.212;-1.010;2022-08-20T03:45:07;100713.94;;;13.56;69.47
62946;BME280;52164;52.212;-1.010;2022-08-20T03:47:33;100712.50;;;13.56;69.44
62946;BME280;52164;52.212;-1.010;2022-08-20T03:49:59;100707.85;;;13.56;69.62
62946;BME280;52164;52.212;-1.010;2022-08-20T03:52:24;100715.02;;;13.55;69.42
62946;BME280;52164;52.212;-1.010;2022-08-20T03:54:50;100715.05;;;13.52;69.14
62946;BME280;52164;52.212;-1.010;2022-08-20T03:57:15;100713.31;;;13.46;69.23
62946;BME280;52164;52.212;-1.010;2022-08-20T03:59:41;100710.31;;;13.40;69.33
62946;BME280;52164;52.212;-1.010;2022-08-20T04:02:07;100706.77;;;13.31;69.47
62946;BME280;52164;52.212;-1.010;2022-08-20T04:04:32;100706.47;;;13.24;69.74
62946;BME280;52164;52.212;-1.010;2022-08-20T04:06:58;100704.02;;;13.15;69.76
62946;BME280;52164;52.212;-1.010;2022-08-20T04:09:23;100703.90;;;13.08;70.24
62946;BME280;52164;52.212;-1.010;2022-08-20T04:11:49;100704.65;;;13.01;70.18
62946;BME280;52164;52.212;-1.010;2022-08-20T04:14:14;100705.78;;;12.96;70.65
62946;BME280;52164;52.212;-1.010;2022-08-20T04:16:40;100707.45;;;12.89;70.64
62946;BME280;52164;52.212;-1.010;2022-08-20T04:19:05;100710.53;;;12.82;70.70
62946;BME280;52164;52.212;-1.010;2022-08-20T04:21:32;100712.35;;;12.77;71.12
62946;BME280;52164;52.212;-1.010;2022-08-20T04:23:58;100717.02;;;12.73;71.29
62946;BME280;52164;52.212;-1.010;2022-08-20T04:26:24;100715.42;;;12.70;71.38
62946;BME280;52164;52.212;-1.010;2022-08-20T04:28:49;100718.65;;;12.70;71.74
62946;BME280;52164;52.212;-1.010;2022-08-20T04:31:16;100716.33;;;12.68;71.83
62946;BME280;52164;52.212;-1.010;2022-08-20T04:33:42;100722.08;;;12.66;71.93
62946;BME280;52164;52.212;-1.010;2022-08-20T04:36:08;100721.19;;;12.65;72.48
62946;BME280;52164;52.212;-1.010;2022-08-20T04:38:34;100724.58;;;12.67;72.47
62946;BME280;52164;52.212;-1.010;2022-08-20T04:40:59;100728.14;;;12.68;72.62
62946;BME280;52164;52.212;-1.010;2022-08-20T04:43:27;100730.82;;;12.69;72.48
62946;BME280;52164;52.212;-1.010;2022-08-20T04:45:53;100734.21;;;12.71;72.71
62946;BME280;52164;52.212;-1.010;2022-08-20T04:48:20;100734.39;;;12.73;72.71
62946;BME280;52164;52.212;-1.010;2022-08-20T04:50:47;100735.27;;;12.75;72.92
62946;BME280;52164;52.212;-1.010;2022-08-20T04:53:14;100739.55;;;12.78;72.77
62946;BME280;52164;52.212;-1.010;2022-08-20T04:55:42;100737.21;;;12.80;72.81
62946;BME280;52164;52.212;-1.010;2022-08-20T04:58:09;100740.42;;;12.81;73.03
62946;BME280;52164;52.212;-1.010;2022-08-20T05:00:35;100738.62;;;12.83;73.47
62946;BME280;52164;52.212;-1.010;2022-08-20T05:03:01;100739.88;;;12.84;73.29
62946;BME280;52164;52.212;-1.010;2022-08-20T05:05:26;100740.59;;;12.86;73.15
62946;BME280;52164;52.212;-1.010;2022-08-20T05:07:53;100741.30;;;12.86;73.11
62946;BME280;52164;52.212;-1.010;2022-08-20T05:10:19;100739.31;;;12.89;73.46
62946;BME280;52164;52.212;-1.010;2022-08-20T05:12:47;100736.80;;;12.91;72.93
62946;BME280;52164;52.212;-1.010;2022-08-20T05:15:13;100742.54;;;12.93;73.18
62946;BME280;52164;52.212;-1.010;2022-08-20T05:17:39;100742.33;;;12.94;73.40
62946;BME280;52164;52.212;-1.010;2022-08-20T05:20:06;100738.91;;;12.96;73.47
62946;BME280;52164;52.212;-1.010;2022-08-20T05:22:31;100740.17;;;12.97;73.59
62946;BME280;52164;52.212;-1.010;2022-08-20T05:24:59;100736.58;;;12.98;73.95
62946;BME280;52164;52.212;-1.010;2022-08-20T05:27:26;100736.37;;;13.02;74.01
62946;BME280;52164;52.212;-1.010;2022-08-20T05:29:52;100735.09;;;13.06;74.21
62946;BME280;52164;52.212;-1.010;2022-08-20T05:32:18;100739.55;;;13.09;73.62
62946;BME280;52164;52.212;-1.010;2022-08-20T05:34:44;100737.55;;;13.12;73.96
62946;BME280;52164;52.212;-1.010;2022-08-20T05:37:09;100741.30;;;13.16;73.58
62946;BME280;52164;52.212;-1.010;2022-08-20T05:39:35;100743.23;;;13.19;73.77
62946;BME280;52164;52.212;-1.010;2022-08-20T05:42:00;100744.29;;;13.23;73.79
62946;BME280;52164;52.212;-1.010;2022-08-20T05:44:25;100748.57;;;13.27;73.86
62946;BME280;52164;52.212;-1.010;2022-08-20T05:46:51;100746.02;;;13.31;73.90
62946;BME280;52164;52.212;-1.010;2022-08-20T05:49:17;100749.27;;;13.36;73.45
62946;BME280;52164;52.212;-1.010;2022-08-20T05:51:44;100748.88;;;13.38;73.88
62946;BME280;52164;52.212;-1.010;2022-08-20T05:54:12;100748.13;;;13.41;73.94
62946;BME280;52164;52.212;-1.010;2022-08-20T05:56:38;100750.97;;;13.45;73.73
62946;BME280;52164;52.212;-1.010;2022-08-20T05:59:04;100751.83;;;13.49;73.67
62946;BME280;52164;52.212;-1.010;2022-08-20T06:01:31;100755.91;;;13.54;73.79
62946;BME280;52164;52.212;-1.010;2022-08-20T06:03:57;100759.45;;;13.60;73.89
62946;BME280;52164;52.212;-1.010;2022-08-20T06:06:43;100754.56;;;13.65;73.68
62946;BME280;52164;52.212;-1.010;2022-08-20T06:09:08;100755.79;;;13.68;73.90
62946;BME280;52164;52.212;-1.010;2022-08-20T06:11:34;100758.64;;;13.71;73.95
62946;BME280;52164;52.212;-1.010;2022-08-20T06:14:00;100759.67;;;13.76;73.93
62946;BME280;52164;52.212;-1.010;2022-08-20T06:16:25;100754.61;;;13.80;73.87
62946;BME280;52164;52.212;-1.010;2022-08-20T06:18:51;100754.39;;;13.85;73.82
62946;BME280;52164;52.212;-1.010;2022-08-20T06:21:16;100763.14;;;13.88;73.82
62946;BME280;52164;52.212;-1.010;2022-08-20T06:23:41;100758.98;;;13.92;73.70
62946;BME280;52164;52.212;-1.010;2022-08-20T06:26:07;100761.81;;;13.96;73.90
62946;BME280;52164;52.212;-1.010;2022-08-20T06:28:33;100759.48;;;13.96;73.79
62946;BME280;52164;52.212;-1.010;2022-08-20T06:30:59;100759.09;;;14.00;74.05
62946;BME280;52164;52.212;-1.010;2022-08-20T06:33:24;100752.77;;;14.03;73.69
62946;BME280;52164;52.212;-1.010;2022-08-20T06:35:49;100750.41;;;14.06;73.72
62946;BME280;52164;52.212;-1.010;2022-08-20T06:38:15;100747.67;;;14.10;73.84
62946;BME280;52164;52.212;-1.010;2022-08-20T06:40:40;100748.67;;;14.16;74.12
62946;BME280;52164;52.212;-1.010;2022-08-20T06:43:06;100748.05;;;14.24;73.86
62946;BME280;52164;52.212;-1.010;2022-08-20T06:45:33;100752.63;;;14.32;73.98
62946;BME280;52164;52.212;-1.010;2022-08-20T06:48:00;100751.46;;;14.40;73.92
62946;BME280;52164;52.212;-1.010;2022-08-20T06:50:27;100748.66;;;14.48;73.55
62946;BME280;52164;52.212;-1.010;2022-08-20T06:52:53;100748.20;;;14.56;73.74
62946;BME280;52164;52.212;-1.010;2022-08-20T06:55:19;100751.73;;;14.65;73.56
62946;BME280;52164;52.212;-1.010;2022-08-20T06:57:44;100751.09;;;14.73;73.15
62946;BME280;52164;52.212;-1.010;2022-08-20T07:00:14;100748.67;;;14.78;73.19
62946;BME280;52164;52.212;-1.010;2022-08-20T07:02:40;100746.42;;;14.85;73.16
62946;BME280;52164;52.212;-1.010;2022-08-20T07:05:06;100742.55;;;14.92;73.19
62946;BME280;52164;52.212;-1.010;2022-08-20T07:07:32;100743.51;;;15.01;73.18
62946;BME280;52164;52.212;-1.010;2022-08-20T07:09:58;100747.30;;;15.11;73.17
62946;BME280;52164;52.212;-1.010;2022-08-20T07:12:24;100751.11;;;15.22;72.71
62946;BME280;52164;52.212;-1.010;2022-08-20T07:14:50;100754.19;;;15.32;72.74
62946;BME280;52164;52.212;-1.010;2022-08-20T07:17:15;100753.32;;;15.42;72.70
62946;BME280;52164;52.212;-1.010;2022-08-20T07:19:41;100754.77;;;15.51;72.19
62946;BME280;52164;52.212;-1.010;2022-08-20T07:22:06;100752.34;;;15.57;72.09
62946;BME280;52164;52.212;-1.010;2022-08-20T07:24:32;100752.77;;;15.63;72.02
62946;BME280;52164;52.212;-1.010;2022-08-20T07:26:57;100753.75;;;15.70;72.09
62946;BME280;52164;52.212;-1.010;2022-08-20T07:29:23;100750.59;;;15.76;71.94
62946;BME280;52164;52.212;-1.010;2022-08-20T07:32:08;100756.20;;;15.85;71.65
62946;BME280;52164;52.212;-1.010;2022-08-20T07:34:53;100753.76;;;15.91;71.34
62946;BME280;52164;52.212;-1.010;2022-08-20T07:37:19;100755.48;;;15.95;71.14
62946;BME280;52164;52.212;-1.010;2022-08-20T07:39:47;100754.50;;;16.00;71.39
62946;BME280;52164;52.212;-1.010;2022-08-20T07:42:12;100758.89;;;16.06;71.06
62946;BME280;52164;52.212;-1.010;2022-08-20T07:44:38;100757.22;;;16.09;70.85
62946;BME280;52164;52.212;-1.010;2022-08-20T07:47:03;100756.25;;;16.12;70.95
62946;BME280;52164;52.212;-1.010;2022-08-20T07:49:29;100755.07;;;16.17;71.10
62946;BME280;52164;52.212;-1.010;2022-08-20T07:51:55;100756.36;;;16.25;70.66
62946;BME280;52164;52.212;-1.010;2022-08-20T07:54:20;100758.59;;;16.31;70.73
62946;BME280;52164;52.212;-1.010;2022-08-20T07:56:45;100759.52;;;16.38;70.76
62946;BME280;52164;52.212;-1.010;2022-08-20T07:59:11;100755.05;;;16.45;70.64
62946;BME280;52164;52.212;-1.010;2022-08-20T08:01:37;100752.89;;;16.55;70.59
62946;BME280;52164;52.212;-1.010;2022-08-20T08:04:02;100755.39;;;16.64;70.48
62946;BME280;52164;52.212;-1.010;2022-08-20T08:06:28;100752.83;;;16.74;70.43
62946;BME280;52164;52.212;-1.010;2022-08-20T08:08:54;100756.96;;;16.84;70.10
62946;BME280;52164;52.212;-1.010;2022-08-20T08:11:20;100753.52;;;16.95;69.99
62946;BME280;52164;52.212;-1.010;2022-08-20T08:13:46;100749.45;;;17.06;69.88
62946;BME280;52164;52.212;-1.010;2022-08-20T08:16:12;100747.94;;;17.17;69.63
62946;BME280;52164;52.212;-1.010;2022-08-20T08:18:40;100746.99;;;17.27;69.47
62946;BME280;52164;52.212;-1.010;2022-08-20T08:21:07;100759.73;;;17.37;69.01
62946;BME280;52164;52.212;-1.010;2022-08-20T08:23:36;100758.89;;;17.42;68.80
62946;BME280;52164;52.212;-1.010;2022-08-20T08:26:02;100761.27;;;17.48;68.57
62946;BME280;52164;52.212;-1.010;2022-08-20T08:28:28;100760.92;;;17.55;68.37
62946;BME280;52164;52.212;-1.010;2022-08-20T08:30:54;100768.08;;;17.64;68.36
62946;BME280;52164;52.212;-1.010;2022-08-20T08:33:22;100770.86;;;17.75;67.83
62946;BME280;52164;52.212;-1.010;2022-08-20T08:36:02;100767.66;;;17.88;67.80
62946;BME280;52164;52.212;-1.010;2022-08-20T08:38:29;100770.44;;;18.07;67.25
62946;BME280;52164;52.212;-1.010;2022-08-20T08:40:55;100770.66;;;18.12;66.94
62946;BME280;52164;52.212;-1.010;2022-08-20T08:43:22;100766.49;;;18.19;66.82
62946;BME280;52164;52.212;-1.010;2022-08-20T08:45:51;100771.78;;;18.30;66.67
62946;BME280;52164;52.212;-1.010;2022-08-20T08:48:18;100768.60;;;18.48;66.34
62946;BME280;52164;52.212;-1.010;2022-08-20T08:50:46;100761.88;;;18.61;65.91
62946;BME280;52164;52.212;-1.010;2022-08-20T08:53:15;100765.51;;;18.67;65.64
62946;BME280;52164;52.212;-1.010;2022-08-20T08:55:43;100764.91;;;18.69;65.53
62946;BME280;52164;52.212;-1.010;2022-08-20T08:58:08;100768.02;;;18.74;65.41
62946;BME280;52164;52.212;-1.010;2022-08-20T09:00:34;100763.21;;;18.77;64.92
62946;BME280;52164;52.212;-1.010;2022-08-20T09:05:26;100761.93;;;18.84;64.77
62946;BME280;52164;52.212;-1.010;2022-08-20T09:07:56;100760.56;;;18.81;64.69
62946;BME280;52164;52.212;-1.010;2022-08-20T09:10:22;100757.40;;;18.78;64.56
62946;BME280;52164;52.212;-1.010;2022-08-20T09:12:48;100753.59;;;18.85;64.37
62946;BME280;52164;52.212;-1.010;2022-08-20T09:15:13;100754.05;;;18.94;64.21
62946;BME280;52164;52.212;-1.010;2022-08-20T09:17:39;100751.92;;;18.98;64.00
62946;BME280;52164;52.212;-1.010;2022-08-20T09:20:04;100748.81;;;19.00;63.77
62946;BME280;52164;52.212;-1.010;2022-08-20T09:22:30;100740.69;;;19.06;63.61
62946;BME280;52164;52.212;-1.010;2022-08-20T09:24:57;100742.41;;;19.14;63.35
62946;BME280;52164;52.212;-1.010;2022-08-20T09:27:24;100739.06;;;19.28;63.24
62946;BME280;52164;52.212;-1.010;2022-08-20T09:29:49;100728.11;;;19.47;62.94
62946;BME280;52164;52.212;-1.010;2022-08-20T09:32:19;100727.88;;;19.76;62.30
62946;BME280;52164;52.212;-1.010;2022-08-20T09:34:46;100722.30;;;20.01;61.75
62946;BME280;52164;52.212;-1.010;2022-08-20T09:37:12;100715.15;;;20.08;61.21
62946;BME280;52164;52.212;-1.010;2022-08-20T09:39:38;100706.77;;;20.10;61.08
62946;BME280;52164;52.212;-1.010;2022-08-20T09:42:05;100702.96;;;20.10;60.70
62946;BME280;52164;52.212;-1.010;2022-08-20T09:44:30;100696.98;;;20.05;60.12
62946;BME280;52164;52.212;-1.010;2022-08-20T09:46:56;100695.94;;;20.04;59.98
62946;BME280;52164;52.212;-1.010;2022-08-20T09:49:21;100695.78;;;20.03;59.84
62946;BME280;52164;52.212;-1.010;2022-08-20T09:51:47;100694.13;;;20.04;59.79
62946;BME280;52164;52.212;-1.010;2022-08-20T09:54:12;100690.54;;;20.13;60.03
62946;BME280;52164;52.212;-1.010;2022-08-20T09:56:37;100692.25;;;20.25;59.85
62946;BME280;52164;52.212;-1.010;2022-08-20T09:59:03;100694.54;;;20.37;59.37
62946;BME280;52164;52.212;-1.010;2022-08-20T10:01:28;100697.02;;;20.53;58.66
62946;BME280;52164;52.212;-1.010;2022-08-20T10:03:54;100690.85;;;20.62;57.54
62946;BME280;52164;52.212;-1.010;2022-08-20T10:06:19;100698.66;;;20.62;57.29
62946;BME280;52164;52.212;-1.010;2022-08-20T10:08:45;100697.73;;;20.72;56.92
62946;BME280;52164;52.212;-1.010;2022-08-20T10:11:10;100692.05;;;20.88;56.46
62946;BME280;52164;52.212;-1.010;2022-08-20T10:13:36;100691.59;;;21.08;56.27
62946;BME280;52164;52.212;-1.010;2022-08-20T10:16:01;100690.55;;;21.30;55.69
62946;BME280;52164;52.212;-1.010;2022-08-20T10:18:27;100697.40;;;21.44;55.06
62946;BME280;52164;52.212;-1.010;2022-08-20T10:20:52;100693.40;;;21.40;54.58
62946;BME280;52164;52.212;-1.010;2022-08-20T10:23:18;100688.17;;;21.30;54.87
62946;BME280;52164;52.212;-1.010;2022-08-20T10:25:43;100690.52;;;21.17;54.98
62946;BME280;52164;52.212;-1.010;2022-08-20T10:28:08;100692.44;;;21.05;55.00
62946;BME280;52164;52.212;-1.010;2022-08-20T10:30:34;100690.82;;;20.97;55.40
62946;BME280;52164;52.212;-1.010;2022-08-20T10:32:59;100690.21;;;20.93;55.32
62946;BME280;52164;52.212;-1.010;2022-08-20T10:35:25;100689.13;;;20.89;55.28
62946;BME280;52164;52.212;-1.010;2022-08-20T10:37:51;100687.84;;;20.84;55.12
62946;BME280;52164;52.212;-1.010;2022-08-20T10:40:16;100681.92;;;20.78;54.76
62946;BME280;52164;52.212;-1.010;2022-08-20T10:42:42;100676.64;;;20.83;54.43
62946;BME280;52164;52.212;-1.010;2022-08-20T10:45:09;100676.34;;;20.82;54.59
62946;BME280;52164;52.212;-1.010;2022-08-20T10:47:35;100674.55;;;20.86;54.04
62946;BME280;52164;52.212;-1.010;2022-08-20T10:50:01;100668.23;;;21.03;53.77
62946;BME280;52164;52.212;-1.010;2022-08-20T10:52:27;100675.71;;;21.11;53.86
62946;BME280;52164;52.212;-1.010;2022-08-20T10:54:53;100676.95;;;21.29;53.55
62946;BME280;52164;52.212;-1.010;2022-08-20T10:57:21;100673.20;;;21.50;53.04
62946;BME280;52164;52.212;-1.010;2022-08-20T10:59:47;100666.33;;;21.79;52.89
62946;BME280;52164;52.212;-1.010;2022-08-20T11:02:13;100659.75;;;22.12;52.44
62946;BME280;52164;52.212;-1.010;2022-08-20T11:04:39;100660.23;;;22.49;51.69
62946;BME280;52164;52.212;-1.010;2022-08-20T11:07:37;100661.44;;;22.81;51.13
62946;BME280;52164;52.212;-1.010;2022-08-20T11:09:50;100660.80;;;23.02;50.36
62946;BME280;52164;52.212;-1.010;2022-08-20T11:12:17;100656.16;;;23.03;50.00
62946;BME280;52164;52.212;-1.010;2022-08-20T11:14:42;100650.88;;;23.07;50.15
62946;BME280;52164;52.212;-1.010;2022-08-20T11:17:08;100647.38;;;23.27;49.88
62946;BME280;52164;52.212;-1.010;2022-08-20T11:19:42;100646.70;;;23.30;49.56
62946;BME280;52164;52.212;-1.010;2022-08-20T11:22:08;100655.48;;;23.43;49.23
62946;BME280;52164;52.212;-1.010;2022-08-20T11:24:34;100648.72;;;23.68;48.59
62946;BME280;52164;52.212;-1.010;2022-08-20T11:26:59;100653.64;;;23.79;48.10
62946;BME280;52164;52.212;-1.010;2022-08-20T11:29:25;100657.14;;;23.74;47.71
62946;BME280;52164;52.212;-1.010;2022-08-20T11:31:50;100661.35;;;23.56;48.00
62946;BME280;52164;52.212;-1.010;2022-08-20T11:34:16;100665.50;;;23.36;48.30
62946;BME280;52164;52.212;-1.010;2022-08-20T11:36:42;100673.98;;;23.12;48.83
62946;BME280;52164;52.212;-1.010;2022-08-20T11:39:08;100673.79;;;22.93;49.19
62946;BME280;52164;52.212;-1.010;2022-08-20T11:41:33;100676.45;;;22.87;49.41
62946;BME280;52164;52.212;-1.010;2022-08-20T11:43:58;100676.27;;;22.83;49.57
62946;BME280;52164;52.212;-1.010;2022-08-20T11:46:24;100672.55;;;22.85;49.72
62946;BME280;52164;52.212;-1.010;2022-08-20T11:48:49;100674.90;;;22.89;49.97
62946;BME280;52164;52.212;-1.010;2022-08-20T11:51:15;100674.04;;;22.88;49.70
62946;BME280;52164;52.212;-1.010;2022-08-20T11:53:40;100683.33;;;22.77;49.48
62946;BME280;52164;52.212;-1.010;2022-08-20T11:56:05;100692.42;;;22.57;49.98
62946;BME280;52164;52.212;-1.010;2022-08-20T11:58:31;100687.10;;;22.34;50.79
62946;BME280;52164;52.212;-1.010;2022-08-20T12:00:58;100700.48;;;22.08;51.67
62946;BME280;52164;52.212;-1.010;2022-08-20T12:03:23;100704.20;;;21.81;52.31
62946;BME280;52164;52.212;-1.010;2022-08-20T12:05:48;100706.09;;;21.62;52.82
62946;BME280;52164;52.212;-1.010;2022-08-20T12:08:14;100705.79;;;21.43;53.33
62946;BME280;52164;52.212;-1.010;2022-08-20T12:10:40;100715.65;;;21.24;54.26
62946;BME280;52164;52.212;-1.010;2022-08-20T12:13:05;100718.63;;;21.18;54.95
62946;BME280;52164;52.212;-1.010;2022-08-20T12:15:33;100711.81;;;21.20;55.02
62946;BME280;52164;52.212;-1.010;2022-08-20T12:17:58;100709.02;;;21.26;55.07
62946;BME280;52164;52.212;-1.010;2022-08-20T12:20:25;100708.92;;;21.33;55.19
62946;BME280;52164;52.212;-1.010;2022-08-20T12:22:50;100697.72;;;21.45;55.35
62946;BME280;52164;52.212;-1.010;2022-08-20T12:25:18;100695.74;;;21.74;54.58
62946;BME280;52164;52.212;-1.010;2022-08-20T12:27:44;100691.77;;;21.95;54.30
62946;BME280;52164;52.212;-1.010;2022-08-20T12:30:11;100694.10;;;21.92;53.96
62946;BME280;52164;52.212;-1.010;2022-08-20T12:32:36;100690.20;;;21.89;53.61
62946;BME280;52164;52.212;-1.010;2022-08-20T12:35:02;100685.48;;;22.01;53.33
62946;BME280;52164;52.212;-1.010;2022-08-20T12:37:28;100681.42;;;22.27;52.88
62946;BME280;52164;52.212;-1.010;2022-08-20T12:39:55;100675.20;;;22.60;52.59